Malargue, Malargue Airport (SAMM)

NameMalargue Airport
CityMalargue
CountryArgentina
ICAOSAMM
IATALGS
Altitude1425 m
CoordinatesGoogle Map
Live Air TrafficLiveATC.net
METARSAMM 051145Z 27005KT 0500 BR BKN010 M05/M06 Q1016
2018-07-05 11:45:00 Wind: West (270°) 2.57 m/s - Visibility: 500 m - Weather: Mist - Temperature: -5 °C - Dew point: -6 °C - Humidity: 92.8% - Pressure: 1016 hPa
Statistics

The table below shows the detailed information of all flights to/from Malargue, Malargue Airport (SAMM).